createdAt,value
2018-07-17T04:10:06.784Z,75.04
2018-07-17T04:11:20.586Z,74.71
2018-07-17T04:11:46.077Z,75.04
2018-07-17T04:12:11.597Z,74.94
2018-07-17T04:12:37.060Z,74.85
2018-07-17T04:13:02.555Z,74.94
2018-07-17T04:13:28.136Z,75.23
2018-07-17T04:13:53.554Z,75.23
2018-07-17T04:14:19.030Z,75.23
2018-07-17T04:14:44.529Z,75.04
2018-07-17T04:15:10.019Z,75.23
2018-07-17T04:15:35.547Z,75.13
2018-07-17T04:16:01.024Z,75.13
2018-07-17T04:16:26.503Z,75.32
2018-07-17T04:16:52.019Z,75.42
2018-07-17T04:17:18.078Z,75.13
2018-07-17T04:17:43.619Z,75.42
2018-07-17T04:18:09.130Z,75.52
2018-07-17T04:18:34.635Z,75.13
2018-07-17T04:19:00.124Z,75.62
2018-07-17T04:19:25.622Z,76.29
2018-07-17T04:19:51.092Z,75.71
2018-07-17T04:20:16.617Z,75.81
2018-07-17T04:20:42.137Z,75.71
2018-07-17T04:21:07.631Z,75.62
2018-07-17T04:21:33.110Z,75.52
2018-07-17T04:21:58.588Z,76.09
2018-07-17T04:22:24.100Z,75.42
2018-07-17T04:22:49.608Z,76.09
2018-07-17T04:23:15.069Z,75.71
2018-07-17T04:23:40.562Z,75.62
2018-07-17T04:24:06.096Z,75.9
2018-07-17T04:24:31.589Z,76.29
2018-07-17T04:24:57.118Z,75.81
2018-07-17T04:25:22.611Z,75.62
2018-07-17T04:25:48.096Z,75.9
2018-07-17T04:26:13.583Z,75.71
2018-07-17T04:26:39.045Z,75.62
2018-07-17T04:27:04.574Z,75.71
2018-07-17T04:27:30.128Z,75.9
2018-07-17T04:27:55.617Z,75.81
2018-07-17T04:28:21.123Z,75.71
2018-07-17T04:28:46.594Z,75.71
2018-07-17T04:29:12.090Z,75.71
2018-07-17T04:29:37.590Z,75.81
2018-07-17T04:30:03.075Z,75.81
2018-07-17T04:30:28.592Z,75.71
2018-07-17T04:30:54.110Z,76
2018-07-17T04:31:19.660Z,75.52
2018-07-17T04:31:45.272Z,75.81
2018-07-17T04:32:11.025Z,76.19
2018-07-17T04:32:36.560Z,76.29
2018-07-17T04:33:02.026Z,76.39
2018-07-17T04:33:27.517Z,76.29
2018-07-17T04:33:53.014Z,75.52
2018-07-17T04:34:18.477Z,75.75
2018-07-17T04:34:43.978Z,75.62
2018-07-17T04:35:09.458Z,75.65
2018-07-17T04:35:34.952Z,75.75
2018-07-17T04:36:00.460Z,75.65
2018-07-17T04:36:26.164Z,75.71
2018-07-17T04:36:51.653Z,75.56
2018-07-17T04:37:17.237Z,76.04
2018-07-17T04:37:42.729Z,76.04
2018-07-17T04:38:08.452Z,76.23
2018-07-17T04:38:33.930Z,76.23
2018-07-17T04:38:59.464Z,75.46
2018-07-17T04:39:24.969Z,75.27
2018-07-17T04:39:50.508Z,75.37
2018-07-17T04:40:16.065Z,75.37
2018-07-17T04:40:41.599Z,75.27
2018-07-17T04:41:07.126Z,75.46
2018-07-17T04:41:32.629Z,75.11
2018-07-17T04:41:58.092Z,75.31
2018-07-17T04:42:23.581Z,74.92
2018-07-17T04:42:49.065Z,74.82
2018-07-17T04:43:14.554Z,74.92
2018-07-17T04:43:40.088Z,74.63
2018-07-17T04:44:05.661Z,74.09
2018-07-17T04:44:31.046Z,74.19
2018-07-17T04:44:56.551Z,73.8
2018-07-17T04:45:22.027Z,73.61
2018-07-17T04:45:47.531Z,73.32
2018-07-17T04:46:13.069Z,72.65
2018-07-17T04:46:38.567Z,72.49
2018-07-17T04:47:04.021Z,72.49
2018-07-17T04:47:29.517Z,72.39
2018-07-17T04:47:55.037Z,71.62
2018-07-17T04:48:20.521Z,71.43
2018-07-17T04:48:46.024Z,71.34
2018-07-17T04:49:11.535Z,71.08
2018-07-17T04:49:37.021Z,71.08
2018-07-17T04:50:02.522Z,70.89
2018-07-17T04:50:28.008Z,70.79
2018-07-17T04:50:53.504Z,70.41
2018-07-17T04:51:19.040Z,70.12
2018-07-17T04:52:32.376Z,69.64
2018-07-17T04:52:57.856Z,69.77
2018-07-17T04:53:23.333Z,69.57
2018-07-17T04:53:48.883Z,69.29
2018-07-17T04:54:14.306Z,68.8
2018-07-17T04:54:39.805Z,69.19
2018-07-17T04:55:05.276Z,69.19
2018-07-17T04:55:30.758Z,68.74
2018-07-17T04:55:56.269Z,68.52
2018-07-17T04:56:21.773Z,68.71
2018-07-17T04:56:47.253Z,68.61
2018-07-17T04:57:12.726Z,68.74
2018-07-17T04:57:38.235Z,68.55
2018-07-17T04:58:03.786Z,68.65
2018-07-17T04:58:29.330Z,68.45
2018-07-17T04:58:54.815Z,68.16
2018-07-17T04:59:20.467Z,68.35
2018-07-17T04:59:45.851Z,68.26
2018-07-17T05:00:11.373Z,68.26
2018-07-17T05:00:36.856Z,68.45
2018-07-17T05:01:02.322Z,68.42
2018-07-17T05:01:27.927Z,68.45
2018-07-17T05:01:53.415Z,67.78
2018-07-17T05:02:18.876Z,67.68
2018-07-17T05:02:44.335Z,68.07
2018-07-17T05:03:09.831Z,67.88
2018-07-17T05:03:35.372Z,67.97
2018-07-17T05:04:00.879Z,68.07
2018-07-17T05:04:26.361Z,67.58
2018-07-17T05:04:51.859Z,67.58
2018-07-17T05:05:17.367Z,67.68
2018-07-17T05:05:42.871Z,67.49
2018-07-17T05:06:08.354Z,67.88
2018-07-17T05:06:33.875Z,68.07
2018-07-17T05:06:59.356Z,67.88
2018-07-17T05:07:24.863Z,67.97
2018-07-17T05:07:50.365Z,67.97
2018-07-17T05:08:15.883Z,67.4
2018-07-17T05:08:41.371Z,67.58
2018-07-17T05:09:06.880Z,67.71
2018-07-17T05:09:32.400Z,67.1
2018-07-17T05:09:57.870Z,67.23
2018-07-17T05:10:23.376Z,67.4
2018-07-17T05:10:48.919Z,67.14
2018-07-17T05:11:14.432Z,66.85
2018-07-17T05:11:39.939Z,66.94
2018-07-17T05:12:05.424Z,67.23
2018-07-17T05:12:30.900Z,66.75
2018-07-17T05:12:56.490Z,66.94
2018-07-17T05:13:21.930Z,66.85
2018-07-17T05:13:47.437Z,66.75
2018-07-17T05:14:12.934Z,66.27
2018-07-17T05:14:38.430Z,66.17
2018-07-17T05:15:03.977Z,65.98
2018-07-17T05:15:29.472Z,65.98
2018-07-17T05:15:54.965Z,66.17
2018-07-17T05:16:20.650Z,66.94
2018-07-17T05:16:46.281Z,66.78
2018-07-17T05:17:11.728Z,66.66
2018-07-17T05:17:37.260Z,66.69
2018-07-17T05:18:02.763Z,66.49
2018-07-17T05:18:28.778Z,66.88
2018-07-17T05:18:54.288Z,66.97
2018-07-17T05:19:19.877Z,66.69
2018-07-17T05:19:45.543Z,66.85
2018-07-17T05:20:11.309Z,66.97
2018-07-17T05:20:36.995Z,66.97
2018-07-17T05:21:02.448Z,66.78
2018-07-17T05:21:27.880Z,66.97
2018-07-17T05:21:53.949Z,66.69
2018-07-17T05:22:19.488Z,66.69
2018-07-17T05:22:45.423Z,66.3
2018-07-17T05:23:10.860Z,66.97
2018-07-17T05:23:36.370Z,66.97
2018-07-17T05:24:01.845Z,67.07
2018-07-17T05:24:27.344Z,66.97
2018-07-17T05:24:52.844Z,67.36
2018-07-17T05:25:18.421Z,66.97
2018-07-17T05:25:43.940Z,66.88
2018-07-17T05:26:09.485Z,66.88
2018-07-17T05:26:34.979Z,66.2
2018-07-17T05:27:00.526Z,65.82
2018-07-17T05:27:26.058Z,66.3
2018-07-17T05:27:51.505Z,66.11
2018-07-17T05:28:17.020Z,66.2
2018-07-17T05:28:42.582Z,66.11
2018-07-17T05:29:08.378Z,66.01
2018-07-17T05:29:33.870Z,66.2
2018-07-17T05:29:59.939Z,66.11
2018-07-17T05:30:25.427Z,66.3
2018-07-17T05:30:50.888Z,66.24
2018-07-17T05:31:16.385Z,66.11
2018-07-17T05:31:41.895Z,66.05
2018-07-17T05:32:07.370Z,65.85
2018-07-17T05:33:00.809Z,65.95
2018-07-17T05:33:26.306Z,65.85
2018-07-17T05:33:51.824Z,66.05
2018-07-17T05:34:17.313Z,65.37
2018-07-17T05:35:31.970Z,65.47
2018-07-17T05:35:57.479Z,65.08
2018-07-17T05:36:22.982Z,64.89
2018-07-17T05:36:48.465Z,64.59
2018-07-17T05:37:14.007Z,64.4
2018-07-17T05:37:39.461Z,64.11
2018-07-17T05:38:04.928Z,63.82
2018-07-17T05:38:30.401Z,63.73
2018-07-17T05:38:55.899Z,63.92
2018-07-17T05:39:21.404Z,63.73
2018-07-17T05:39:46.884Z,63.82
2018-07-17T05:40:12.383Z,63.56
2018-07-17T05:40:37.876Z,63.24
2018-07-17T05:41:03.444Z,63.37
2018-07-17T05:41:28.880Z,63.66
2018-07-17T05:41:54.725Z,63.66
2018-07-17T05:42:20.104Z,63.76
2018-07-17T05:42:45.592Z,63.56
2018-07-17T05:43:11.084Z,62.89
2018-07-17T05:43:36.560Z,62.79
2018-07-17T05:44:02.013Z,63.37
2018-07-17T05:44:27.487Z,62.79
2018-07-17T05:44:52.975Z,62.7
2018-07-17T05:45:18.488Z,62.5
2018-07-17T05:45:43.978Z,62.31
2018-07-17T05:46:09.471Z,62.5
2018-07-17T05:46:35.104Z,62.21
2018-07-17T05:47:00.520Z,61.95
2018-07-17T05:47:26.038Z,61.47
2018-07-17T05:47:51.571Z,61.25
2018-07-17T05:48:17.077Z,61.08
2018-07-17T05:48:42.568Z,59.63
2018-07-17T05:49:08.058Z,59.92
2018-07-17T05:49:33.473Z,60.02
2018-07-17T05:49:58.998Z,59.05
2018-07-17T05:50:24.484Z,59.05
2018-07-17T05:50:50.021Z,58.76
2018-07-17T05:51:15.477Z,58.67
2018-07-17T05:51:41.142Z,58.47
2018-07-17T05:52:06.640Z,58.76
2018-07-17T05:52:32.247Z,58.4
2018-07-17T05:52:57.808Z,58.02
2018-07-17T05:53:23.338Z,57.82
2018-07-17T05:53:48.828Z,58.4
2018-07-17T05:54:14.325Z,57.92
2018-07-17T05:54:39.799Z,57.73
2018-07-17T05:55:05.539Z,57.63
2018-07-17T05:55:31.029Z,57.54
2018-07-17T05:55:56.474Z,57.44
2018-07-17T05:56:22.008Z,56.86
2018-07-17T05:56:47.436Z,57.34
2018-07-17T05:57:13.045Z,57.15
2018-07-17T05:57:38.434Z,56.76
2018-07-17T05:58:04.032Z,56.88
2018-07-17T05:58:29.463Z,57.05
2018-07-17T05:58:54.931Z,56.5
2018-07-17T05:59:20.379Z,56.18
2018-07-17T05:59:45.834Z,56.5
2018-07-17T06:00:11.329Z,57.18
2018-07-17T06:00:36.821Z,56.6
2018-07-17T06:01:02.344Z,56.4
2018-07-17T06:01:27.894Z,56.79
2018-07-17T06:01:53.384Z,56.21
2018-07-17T06:02:18.921Z,56.11
2018-07-17T06:02:44.411Z,55.34
2018-07-17T06:03:09.894Z,55.24
2018-07-17T06:03:35.345Z,55.53
2018-07-17T06:04:01.081Z,55.34
2018-07-17T06:04:26.600Z,55.24
2018-07-17T06:04:52.125Z,55.05
2018-07-17T06:05:17.605Z,55.73
2018-07-17T06:05:43.183Z,54.95
2018-07-17T06:06:08.746Z,54.57
2018-07-17T06:06:34.212Z,54.17
2018-07-17T06:06:59.737Z,53.31
2018-07-17T06:07:25.266Z,53.31
2018-07-17T06:07:50.901Z,54.17
2018-07-17T06:08:16.482Z,54.08
2018-07-17T06:08:42.008Z,53.99
2018-07-17T06:09:07.477Z,54.47
2018-07-17T06:10:11.177Z,52.85
2018-07-17T06:10:36.612Z,53.23
2018-07-17T06:11:02.103Z,53.02
2018-07-17T06:11:27.611Z,53.33
2018-07-17T06:11:53.103Z,53.33
2018-07-17T06:12:18.582Z,53.11
2018-07-17T06:12:44.076Z,53.33
2018-07-17T06:13:09.584Z,54.21
2018-07-17T06:13:35.112Z,53.63
2018-07-17T06:14:33.643Z,54.21
2018-07-17T06:14:59.131Z,53.91
2018-07-17T06:15:24.627Z,53.23
2018-07-17T06:15:50.115Z,52.75
2018-07-17T06:16:15.614Z,52.46
2018-07-17T06:16:41.139Z,52.75
2018-07-17T06:17:06.600Z,52.36
2018-07-17T06:17:32.180Z,52.75
2018-07-17T06:17:57.656Z,53.04
2018-07-17T06:18:23.191Z,52.46
2018-07-17T06:18:48.722Z,53.04
2018-07-17T06:19:14.172Z,53.04
2018-07-17T06:19:39.667Z,52.85
2018-07-17T06:20:05.151Z,53.17
2018-07-17T06:20:30.631Z,53.36
2018-07-17T06:20:56.158Z,52.87
2018-07-17T06:21:21.646Z,52.87
2018-07-17T06:21:47.108Z,53.26
2018-07-17T06:22:12.603Z,52.97
2018-07-17T06:22:38.071Z,53.07
2018-07-17T06:23:03.577Z,53.17
2018-07-17T06:23:29.092Z,53.55
2018-07-17T06:23:54.597Z,54.23
2018-07-17T06:24:20.066Z,54.16
2018-07-17T06:24:45.561Z,54.35
2018-07-17T06:25:11.109Z,53.67
2018-07-17T06:25:36.527Z,53.39
2018-07-17T06:26:29.987Z,53.58
2018-07-17T06:26:55.496Z,53.7
2018-07-17T06:27:20.997Z,53.41
2018-07-17T06:27:46.509Z,53.51
2018-07-17T06:28:11.997Z,53.41
2018-07-17T06:28:37.503Z,53.31
2018-07-17T06:29:02.985Z,53.31
2018-07-17T06:29:28.484Z,53.41
2018-07-17T06:29:54.041Z,53.12
2018-07-17T06:30:19.553Z,53.22
2018-07-17T06:31:28.228Z,52.93
2018-07-17T06:31:53.730Z,53.53
2018-07-17T06:32:19.227Z,53.34
2018-07-17T06:32:44.738Z,53.24
2018-07-17T06:33:10.268Z,52.86
2018-07-17T06:33:35.754Z,53.15
2018-07-17T06:34:01.240Z,52.28
2018-07-17T06:34:26.755Z,52.66
2018-07-17T06:35:30.371Z,52.28
2018-07-17T06:35:55.872Z,52.56
2018-07-17T06:36:21.381Z,52.11
2018-07-17T06:37:19.938Z,51.43
2018-07-17T06:37:45.436Z,52.3
2018-07-17T06:38:10.956Z,51.81
2018-07-17T06:38:36.423Z,52.11
2018-07-17T06:39:01.902Z,51.72
2018-07-17T06:39:27.411Z,52.2
2018-07-17T06:40:25.909Z,51.81
2018-07-17T06:40:51.442Z,51.65
2018-07-17T06:41:16.953Z,51.06
2018-07-17T06:41:42.452Z,50.58
2018-07-17T06:42:07.945Z,50.68
2018-07-17T06:42:33.443Z,51.35
2018-07-17T06:42:58.940Z,50.96
2018-07-17T06:43:24.448Z,51.26
2018-07-17T06:43:49.921Z,51.35
2018-07-17T06:44:15.399Z,51.26
2018-07-17T06:44:40.958Z,50.96
2018-07-17T06:45:06.376Z,50.58
2018-07-17T06:45:31.881Z,50.38
2018-07-17T06:45:57.371Z,50.29
2018-07-17T06:46:22.907Z,50.48
2018-07-17T06:46:48.411Z,49.92
2018-07-17T06:47:13.906Z,50.19
2018-07-17T06:47:39.409Z,50.21
2018-07-17T06:48:04.903Z,50.41
2018-07-17T06:48:30.405Z,50.51
2018-07-17T06:49:34.034Z,49.92
2018-07-17T06:49:59.525Z,49.34
2018-07-17T06:50:25.147Z,48.75
2018-07-17T06:50:50.579Z,48.85
2018-07-17T06:51:15.996Z,48.95
2018-07-17T06:51:41.532Z,48.85
2018-07-17T06:52:07.037Z,48.57
2018-07-17T06:52:32.501Z,48.85
2018-07-17T06:52:58.027Z,48.37
2018-07-17T06:53:23.505Z,48.75
2018-07-17T06:53:48.995Z,48.27
2018-07-17T06:54:14.493Z,48.27
2018-07-17T06:54:39.958Z,48.37
2018-07-17T06:55:33.406Z,48.75
2018-07-17T06:55:58.910Z,47.88
2018-07-17T06:56:24.416Z,48.57
2018-07-17T06:56:49.901Z,48.57
2018-07-17T06:57:15.446Z,48.58
2018-07-17T06:57:40.928Z,48.47
2018-07-17T06:58:06.399Z,48.58
2018-07-17T06:58:31.903Z,48
2018-07-17T06:58:57.402Z,47.81
2018-07-17T06:59:22.927Z,47.42
2018-07-17T06:59:48.417Z,47.32
2018-07-17T07:00:13.937Z,47.32
2018-07-17T07:00:39.435Z,47.32
2018-07-17T07:01:04.924Z,47.52
2018-07-17T07:01:30.404Z,47.23
2018-07-17T07:01:55.934Z,46.74
2018-07-17T07:02:21.422Z,46.25
2018-07-17T07:02:46.934Z,45.77
2018-07-17T07:03:12.432Z,46.35
2018-07-17T07:03:37.888Z,46.45
2018-07-17T07:04:03.372Z,46.81
2018-07-17T07:04:28.883Z,47.11
2018-07-17T07:04:54.410Z,46.94
2018-07-17T07:05:20.039Z,47.13
2018-07-17T07:05:45.411Z,47.42
2018-07-17T07:06:10.891Z,47.03
2018-07-17T07:06:36.412Z,47.23
2018-07-17T07:07:01.895Z,47.42
2018-07-17T07:07:27.406Z,47.32
2018-07-17T07:07:52.925Z,47.32
2018-07-17T07:08:18.437Z,47.61
2018-07-17T07:08:43.927Z,47.13
2018-07-17T07:09:09.448Z,47.91
2018-07-17T07:09:34.950Z,47.42
2018-07-17T07:10:00.428Z,47.61
2018-07-17T07:10:25.966Z,46.84
2018-07-17T07:10:51.466Z,46.55
2018-07-17T07:11:16.957Z,46.64
2018-07-17T07:11:42.452Z,47.03
2018-07-17T07:12:07.946Z,47.23
2018-07-17T07:12:33.470Z,46.94
2018-07-17T07:12:58.963Z,45.97
2018-07-17T07:13:24.470Z,45.77
2018-07-17T07:13:49.982Z,45.38
2018-07-17T07:14:15.511Z,45.28
2018-07-17T07:14:41.020Z,45.57
2018-07-17T07:15:06.530Z,45.57
2018-07-17T07:15:32.070Z,45.97
2018-07-17T07:15:57.569Z,46.35
2018-07-17T07:16:23.064Z,46.64
2018-07-17T07:16:48.565Z,46.64
2018-07-17T07:17:14.060Z,46.74
2018-07-17T07:17:39.521Z,46.64
2018-07-17T07:18:05.022Z,46.45
2018-07-17T07:18:30.513Z,46.15
2018-07-17T07:18:56.015Z,46.64
2018-07-17T07:19:21.505Z,46.94
2018-07-17T07:19:47.015Z,46.47
2018-07-17T07:20:12.507Z,46.47
2018-07-17T07:20:37.972Z,46.47
2018-07-17T07:21:03.487Z,46.57
2018-07-17T07:21:28.993Z,46.18
2018-07-17T07:21:54.492Z,45.69
2018-07-17T07:22:20.012Z,45.98
2018-07-17T07:22:45.470Z,45.89
2018-07-17T07:23:10.976Z,45.79
2018-07-17T07:23:36.555Z,45.79
2018-07-17T07:24:02.063Z,45.79
2018-07-17T07:24:27.600Z,45.98
2018-07-17T07:24:53.098Z,45.5
2018-07-17T07:25:18.646Z,45.01
2018-07-17T07:25:44.143Z,45.52
2018-07-17T07:26:09.640Z,45.62
2018-07-17T07:26:35.121Z,45.5
2018-07-17T07:27:00.638Z,45.91
2018-07-17T07:27:26.121Z,45.91
2018-07-17T07:27:51.666Z,45.52
2018-07-17T07:28:17.190Z,45.52
2018-07-17T07:28:42.866Z,45.72
2018-07-17T07:29:08.299Z,46.2
2018-07-17T07:29:33.814Z,46.01
2018-07-17T07:29:59.291Z,45.74
2018-07-17T07:30:24.809Z,45.15
2018-07-17T07:30:50.343Z,44.96
2018-07-17T07:31:15.820Z,44.67
2018-07-17T07:31:41.313Z,45.25
2018-07-17T07:32:06.820Z,44.09
2018-07-17T07:32:32.324Z,44.09
2018-07-17T07:32:57.828Z,44.38
2018-07-17T07:33:23.348Z,44.38
2018-07-17T07:33:48.851Z,44.28
2018-07-17T07:34:14.361Z,43.99
2018-07-17T07:34:39.835Z,43.5
2018-07-17T07:35:05.324Z,44.09
2018-07-17T07:35:30.833Z,44.18
2018-07-17T07:35:56.342Z,44.09
2018-07-17T07:36:21.857Z,43.6
2018-07-17T07:36:47.322Z,43.81
2018-07-17T07:37:12.903Z,43.62
2018-07-17T07:37:38.369Z,43.52
2018-07-17T07:38:03.864Z,43.91
2018-07-17T07:38:29.371Z,43.81
2018-07-17T07:38:54.936Z,43.81
2018-07-17T07:39:20.426Z,43.91
2018-07-17T07:39:45.959Z,43.43
2018-07-17T07:40:11.419Z,44.01
2018-07-17T07:40:36.916Z,44.3
2018-07-17T07:41:02.403Z,44.2
2018-07-17T07:41:27.895Z,43.43
2018-07-17T07:41:53.368Z,43.54
2018-07-17T07:42:18.883Z,43.43
2018-07-17T07:42:44.420Z,43.74
2018-07-17T07:43:09.898Z,43.64
2018-07-17T07:43:35.384Z,43.74
2018-07-17T07:44:00.871Z,43.84
2018-07-17T07:44:26.404Z,43.74
2018-07-17T07:44:51.917Z,42.86
2018-07-17T07:45:45.391Z,42.96
2018-07-17T07:46:10.888Z,43.44
2018-07-17T07:46:36.396Z,42.96
2018-07-17T07:47:01.890Z,42.57
2018-07-17T07:47:27.387Z,43.15
2018-07-17T07:47:52.938Z,43.25
2018-07-17T07:48:18.416Z,43.74
2018-07-17T07:48:43.923Z,42.96
2018-07-17T07:49:09.387Z,43.27
2018-07-17T07:49:34.880Z,43.84
2018-07-17T07:50:00.359Z,43.85
2018-07-17T07:50:25.843Z,43.27
2018-07-17T07:50:51.323Z,43.18
2018-07-17T07:51:16.842Z,42.59
2018-07-17T07:51:42.317Z,42.98
2018-07-17T07:52:07.772Z,42.88
2018-07-17T07:52:33.273Z,42.3
2018-07-17T07:52:58.771Z,42.88
2018-07-17T07:53:24.267Z,42.49
2018-07-17T07:53:49.781Z,42.49
2018-07-17T07:54:15.299Z,42.4
2018-07-17T07:54:40.817Z,41.81
2018-07-17T07:55:06.319Z,41.52
2018-07-17T07:55:31.921Z,41.42
2018-07-17T07:55:57.358Z,41.61
2018-07-17T07:56:22.838Z,41.61
2018-07-17T07:56:48.325Z,41.32
2018-07-17T07:57:13.804Z,41.71
2018-07-17T07:57:39.300Z,42.3
2018-07-17T07:58:04.797Z,42.49
2018-07-17T07:58:30.295Z,42.79
2018-07-17T07:58:55.824Z,42.98
2018-07-17T07:59:21.333Z,42.49
2018-07-17T07:59:46.841Z,42.79
2018-07-17T08:00:12.350Z,42.88
2018-07-17T08:00:37.856Z,42.59
2018-07-17T08:01:03.356Z,42.59
2018-07-17T08:01:28.825Z,42.4
2018-07-17T08:01:54.314Z,41.61
2018-07-17T08:02:19.808Z,41.42
2018-07-17T08:02:45.304Z,41.32
2018-07-17T08:03:10.815Z,42.2
2018-07-17T08:03:36.394Z,42.59
2018-07-17T08:04:01.844Z,42.69
2018-07-17T08:04:27.302Z,42.69
2018-07-17T08:04:52.809Z,42.2
2018-07-17T08:05:18.292Z,42.49
2018-07-17T08:05:43.803Z,42.61
2018-07-17T08:06:09.278Z,42.69
2018-07-17T08:06:34.739Z,42.79
2018-07-17T08:07:00.224Z,42.41
2018-07-17T08:07:25.719Z,42.02
2018-07-17T08:07:51.245Z,41.52
2018-07-17T08:08:16.715Z,41.32
2018-07-17T08:08:42.238Z,41.05
2018-07-17T08:09:07.738Z,41.44
2018-07-17T08:09:33.239Z,41.25
2018-07-17T08:10:47.283Z,42.22
2018-07-17T08:11:12.785Z,42.22
2018-07-17T08:11:38.370Z,42.8
2018-07-17T08:12:03.864Z,43.19
2018-07-17T08:12:29.264Z,43.1
2018-07-17T08:12:54.807Z,42.61
2018-07-17T08:13:20.299Z,41.93
2018-07-17T08:13:45.769Z,41.73
2018-07-17T08:14:11.290Z,41.73
2018-07-17T08:14:36.802Z,41.63
2018-07-17T08:15:02.318Z,41.63
2018-07-17T08:15:27.778Z,41.25
2018-07-17T08:15:53.261Z,41.05
2018-07-17T08:16:18.745Z,41.25
2018-07-17T08:16:44.243Z,41.05
2018-07-17T08:17:09.740Z,40.76
2018-07-17T08:17:35.239Z,41.44
2018-07-17T08:18:00.733Z,41.44
2018-07-17T08:18:26.223Z,41.83
2018-07-17T08:18:51.733Z,41.54
2018-07-17T08:19:17.223Z,41.25
2018-07-17T08:19:42.711Z,41.54
2018-07-17T08:20:08.192Z,41.35
2018-07-17T08:20:33.689Z,41.35
2018-07-17T08:20:59.200Z,40.37
2018-07-17T08:21:24.678Z,40.47
2018-07-17T08:21:50.179Z,40.27
2018-07-17T08:22:15.700Z,40.56
2018-07-17T08:22:41.176Z,40.56
2018-07-17T08:23:06.666Z,40.47
2018-07-17T08:23:32.145Z,40.17
2018-07-17T08:23:57.653Z,40.37
2018-07-17T08:24:23.166Z,40.37
2018-07-17T08:24:48.645Z,40.37
2018-07-17T08:25:14.148Z,40.58
2018-07-17T08:25:39.656Z,40.37
2018-07-17T08:26:05.122Z,40.39
2018-07-17T08:26:30.633Z,39.9
2018-07-17T08:26:56.080Z,40.39
2018-07-17T08:27:21.579Z,40.58
2018-07-17T08:27:47.100Z,40.58
2018-07-17T08:28:12.598Z,40.39
2018-07-17T08:28:38.106Z,40.29
2018-07-17T08:29:03.575Z,40.29
2018-07-17T08:29:29.105Z,40.19
2018-07-17T08:29:54.613Z,40.78
2018-07-17T08:30:20.084Z,40.88
2018-07-17T08:30:45.587Z,40.5
2018-07-17T08:31:11.100Z,40
2018-07-17T08:31:36.610Z,39.53
2018-07-17T08:32:02.128Z,39.43
2018-07-17T08:32:27.597Z,39.62
2018-07-17T08:32:53.101Z,39.82
2018-07-17T08:33:18.645Z,39.72
2018-07-17T08:33:44.139Z,39.72
2018-07-17T08:34:09.623Z,40.01
2018-07-17T08:34:35.118Z,40.11
2018-07-17T08:35:00.617Z,40.14
2018-07-17T08:35:26.112Z,39.36
2018-07-17T08:35:51.619Z,39.16
2018-07-17T08:36:17.086Z,39.06
2018-07-17T08:36:42.585Z,38.84
2018-07-17T08:37:08.070Z,39.04
2018-07-17T08:37:33.576Z,38.96
2018-07-17T08:37:59.059Z,38.77
2018-07-17T08:38:24.567Z,39.26
2018-07-17T08:38:50.051Z,39.65
2018-07-17T08:39:15.530Z,39.55
2018-07-17T08:39:41.051Z,38.96
2018-07-17T08:40:06.568Z,38.77
2018-07-17T08:40:32.071Z,38.67
2018-07-17T08:40:57.539Z,37.99
2018-07-17T08:41:23.082Z,38.38
2018-07-17T08:41:48.559Z,38.28
2018-07-17T08:42:14.067Z,38.38
2018-07-17T08:42:39.539Z,38.28
2018-07-17T08:43:05.046Z,38.48
2018-07-17T08:43:30.752Z,38.48
2018-07-17T08:43:56.047Z,38.48
2018-07-17T08:44:21.531Z,38.48
2018-07-17T08:44:47.042Z,38.38
2018-07-17T08:45:12.527Z,38.57
2018-07-17T08:45:38.020Z,38.96
2018-07-17T08:46:03.486Z,39.06
2018-07-17T08:46:29.016Z,38.57
2018-07-17T08:46:54.475Z,38.96
2018-07-17T08:47:19.965Z,38.57
2018-07-17T08:47:45.442Z,38.57
2018-07-17T08:48:10.938Z,38.38
2018-07-17T08:48:36.423Z,38.09
2018-07-17T08:49:02.026Z,37.89
2018-07-17T08:49:27.462Z,37.81
2018-07-17T08:49:52.978Z,37.99
2018-07-17T08:50:18.499Z,38.1
2018-07-17T08:50:43.968Z,38.3
2018-07-17T08:51:09.478Z,38.57
2018-07-17T08:51:34.981Z,38.98
2018-07-17T08:52:00.530Z,38.59
2018-07-17T08:52:26.013Z,38.98
2018-07-17T08:52:51.516Z,39.08
2018-07-17T08:53:17.025Z,38.98
2018-07-17T08:53:42.517Z,39.08
2018-07-17T08:54:08.033Z,39.2
2018-07-17T08:54:33.614Z,39.08
2018-07-17T08:54:59.023Z,39.29
2018-07-17T08:55:52.469Z,39.2
2018-07-17T08:56:18.001Z,39.49
2018-07-17T08:56:43.481Z,39.29
2018-07-17T08:57:08.979Z,39.39
2018-07-17T08:57:34.454Z,39.39
2018-07-17T08:57:59.977Z,39
2018-07-17T08:59:13.782Z,38.71
2018-07-17T08:59:39.302Z,38.9
2018-07-17T09:00:04.823Z,38.73
2018-07-17T09:00:30.319Z,38.73
2018-07-17T09:00:55.799Z,38.24
2018-07-17T09:01:21.314Z,37.75
2018-07-17T09:01:46.807Z,37.85
2018-07-17T09:02:12.279Z,37.55
2018-07-17T09:02:37.814Z,37.95
2018-07-17T09:03:03.306Z,37.75
2018-07-17T09:03:28.828Z,37.85
2018-07-17T09:03:54.405Z,37.85
2018-07-17T09:04:19.905Z,37.75
2018-07-17T09:04:45.384Z,37.75
2018-07-17T09:05:10.875Z,36.47
2018-07-17T09:05:36.349Z,36.47
2018-07-17T09:06:01.875Z,36.18
2018-07-17T09:06:27.352Z,36.18
2018-07-17T09:07:36.056Z,36.36
2018-07-17T09:08:01.565Z,36.87
2018-07-17T09:08:27.083Z,36.55
2018-07-17T09:08:52.563Z,36.77
2018-07-17T09:09:18.058Z,36.75
2018-07-17T09:09:43.548Z,36.77
2018-07-17T09:10:09.036Z,36.67
2018-07-17T09:10:34.563Z,36.47
2018-07-17T09:11:00.050Z,36.57
2018-07-17T09:11:25.534Z,37.06
2018-07-17T09:11:51.057Z,36.77
2018-07-17T09:12:16.564Z,37.16
2018-07-17T09:12:42.044Z,37.06
2018-07-17T09:13:07.571Z,36.47
2018-07-17T09:13:33.033Z,36.28
2018-07-17T09:13:58.546Z,36.28
2018-07-17T09:14:24.045Z,36.18
2018-07-17T09:14:49.550Z,36.18
2018-07-17T09:15:15.029Z,35.79
2018-07-17T09:15:40.546Z,35.99
2018-07-17T09:16:06.066Z,36.67
2018-07-17T09:16:31.591Z,36.77
2018-07-17T09:16:57.107Z,36.87
2018-07-17T09:17:22.614Z,36.67
2018-07-17T09:17:48.092Z,37.06
2018-07-17T09:19:01.914Z,37.06
2018-07-17T09:19:27.403Z,37.75
2018-07-17T09:19:52.917Z,37.47
2018-07-17T09:20:18.419Z,37.65
2018-07-17T09:20:43.918Z,37.65
2018-07-17T09:21:09.431Z,37.67
2018-07-17T09:21:34.967Z,37.77
2018-07-17T09:22:00.420Z,37.87
2018-07-17T09:22:25.948Z,37.47
2018-07-17T09:22:51.438Z,37.08
2018-07-17T09:23:16.925Z,36.49
2018-07-17T09:23:42.419Z,36.2
2018-07-17T09:24:07.933Z,36.49
2018-07-17T09:24:33.455Z,36.2
2018-07-17T09:24:58.944Z,36.3
2018-07-17T09:25:24.460Z,36.1
2018-07-17T09:25:49.947Z,36
2018-07-17T09:26:15.457Z,36.49
2018-07-17T09:26:41.015Z,36.4
2018-07-17T09:27:06.504Z,36.69
2018-07-17T09:27:32.001Z,36.79
2018-07-17T09:27:57.506Z,37.08
2018-07-17T09:28:23.130Z,37.18
2018-07-17T09:28:48.502Z,36.98
2018-07-17T09:29:14.021Z,37.18
2018-07-17T09:29:39.554Z,37.67
2018-07-17T09:30:05.050Z,37.67
2018-07-17T09:30:30.564Z,37.77
2018-07-17T09:30:56.088Z,36.88
2018-07-17T09:31:21.577Z,36.59
2018-07-17T09:31:47.126Z,36.69
2018-07-17T09:32:12.644Z,36.69
2018-07-17T09:32:38.210Z,36.69
2018-07-17T09:33:03.722Z,36.69
2018-07-17T09:33:29.293Z,36.79
2018-07-17T09:33:54.725Z,36.98
2018-07-17T09:34:20.203Z,37.77
2018-07-17T09:34:45.734Z,37.27
2018-07-17T09:35:11.197Z,36.4
2018-07-17T09:36:19.904Z,36
2018-07-17T09:36:45.408Z,36.32
2018-07-17T09:37:10.889Z,36.71
2018-07-17T09:37:36.370Z,36.59
2018-07-17T09:38:01.837Z,36.98
2018-07-17T09:38:27.375Z,36.88
2018-07-17T09:38:52.939Z,36.51
2018-07-17T09:39:18.398Z,36.61
2018-07-17T09:39:43.925Z,36
2018-07-17T09:40:09.420Z,36
2018-07-17T09:40:34.952Z,36.1
2018-07-17T09:41:00.440Z,36.3
2018-07-17T09:41:25.979Z,36.69
2018-07-17T09:41:51.494Z,36.49
2018-07-17T09:42:16.990Z,36.59
2018-07-17T09:42:42.507Z,36.02
2018-07-17T09:43:08.032Z,36.12
2018-07-17T09:43:33.526Z,36.32
2018-07-17T09:43:59.061Z,36.12
2018-07-17T09:44:24.650Z,35.83
2018-07-17T09:44:50.029Z,35.53
2018-07-17T09:45:15.498Z,36.32
2018-07-17T09:45:40.998Z,35.83
2018-07-17T09:46:34.459Z,36.12
2018-07-17T09:46:59.957Z,36.22
2018-07-17T09:47:25.453Z,36.32
2018-07-17T09:47:50.957Z,36.71
2018-07-17T09:48:16.464Z,36.32
2018-07-17T09:48:41.945Z,36.02
2018-07-17T09:49:07.473Z,36.22
2018-07-17T09:49:32.981Z,35.73
2018-07-17T09:49:58.522Z,35.63
2018-07-17T09:50:24.016Z,35.53
2018-07-17T09:50:49.507Z,36.02
2018-07-17T09:51:14.995Z,35.83
2018-07-17T09:51:40.517Z,35.83
2018-07-17T09:52:06.002Z,35.93
2018-07-17T09:52:31.496Z,36.12
2018-07-17T09:52:56.971Z,35.83